Starr, Pennsylvania
Current Conditions -  °F | °C
As of 5:16 AM on Friday 24 Oct 2014 (Local Time) from KDUJ Reporting Station
Overcast Overcast  
Wind Chill: 40°   Ceiling: 1000
Heat Index: 45°   Visibility: 10mi
Dew Point: 43°   Wind: 10mph
Humidity: 93%   Direction: 300°WNW
Pressure: 30.03"   Gusts: NA
Location:  41.5317°N, 79.2538°W
Report Text: KDUJ 240916Z AUTO 30009KT 10SM OVC010 07/06 A3003 RMK AO2 CIG 007V013 T00720061
Loading
Personal Weather Stations






























Interactive Weather Map
Tropical Storm Tracking
New forecast layout! Learn more

10-Day Weather Forecast

Advertisements
Track Severe Weather on mobile